Time;durP1;ratioP1;P1;durP2;ratioP2;P2;SDS_P1;SDS_P2;PMS_P1;PMS_P2;Temp;Humidity;BMP_temperature;BMP_pressure;BME280_temperature;BME280_humidity;BME280_pressure;Samples;Min_cycle;Max_cycle;Signal;HPM_P1;HPM_P2
2021/11/16 00:01:38;;;;;;;80.07;39.53;;;8.60;99.90;;;;;;5060930;28;20179;-88
2021/11/16 00:04:08;;;;;;;77.63;39.70;;;8.80;99.90;;;;;;5073985;28;20183;-88
2021/11/16 00:06:35;;;;;;;72.37;37.73;;;8.70;99.90;;;;;;5076782;28;20269;-87
2021/11/16 00:09:03;;;;;;;76.87;38.93;;;8.70;99.90;;;;;;5065563;28;20194;-88
2021/11/16 00:11:28;;;;;;;76.07;39.27;;;8.70;99.90;;;;;;5061502;28;20201;-88
2021/11/16 00:13:54;;;;;;;79.03;39.00;;;8.60;99.90;;;;;;5061469;28;20252;-88
2021/11/16 00:16:21;;;;;;;80.27;39.93;;;8.80;99.90;;;;;;5061257;28;20630;-88
2021/11/16 00:18:50;;;;;;;74.73;38.83;;;8.90;99.90;;;;;;5060440;28;20188;-88
2021/11/16 00:21:19;;;;;;;70.33;37.53;;;9.00;99.90;;;;;;5080419;28;20187;-88
2021/11/16 00:23:47;;;;;;;73.00;37.47;;;9.00;99.90;;;;;;5081572;28;20195;-88
2021/11/16 00:26:13;;;;;;;73.97;37.30;;;9.00;99.90;;;;;;5083980;28;20275;-88
2021/11/16 00:28:39;;;;;;;81.13;40.17;;;9.00;99.90;;;;;;5068481;28;20208;-88
2021/11/16 00:31:05;;;;;;;79.63;39.87;;;9.10;99.90;;;;;;5080512;28;20198;-88
2021/11/16 00:33:31;;;;;;;78.53;38.23;;;9.30;99.90;;;;;;5064133;28;20533;-88
2021/11/16 00:35:58;;;;;;;83.30;40.17;;;9.30;99.90;;;;;;5080204;28;20181;-88
2021/11/16 00:38:26;;;;;;;80.10;40.10;;;9.40;99.90;;;;;;5078326;28;20194;-89
2021/11/16 00:40:52;;;;;;;77.10;39.03;;;9.40;99.90;;;;;;5079919;28;20191;-88
2021/11/16 00:43:18;;;;;;;81.63;39.73;;;9.50;99.90;;;;;;5062244;28;20199;-88
2021/11/16 00:45:46;;;;;;;80.60;39.53;;;9.40;99.90;;;;;;5076119;28;20187;-89
2021/11/16 00:48:14;;;;;;;79.77;39.83;;;9.30;99.90;;;;;;5077829;28;20231;-88
2021/11/16 00:50:42;;;;;;;76.70;37.83;;;9.30;99.90;;;;;;5064686;28;20199;-88
2021/11/16 00:53:08;;;;;;;74.53;37.63;;;9.40;99.90;;;;;;5061048;28;20187;-87
2021/11/16 00:55:34;;;;;;;78.50;39.07;;;9.50;99.90;;;;;;5064003;28;20191;-87
2021/11/16 00:58:01;;;;;;;74.57;37.27;;;9.50;99.90;;;;;;5060745;28;20183;-89
2021/11/16 01:00:27;;;;;;;71.83;38.17;;;9.50;99.90;;;;;;5062906;28;20281;-88
2021/11/16 01:02:54;;;;;;;74.23;37.67;;;9.40;99.90;;;;;;5076909;28;20186;-88
2021/11/16 01:05:20;;;;;;;82.07;39.67;;;9.40;99.90;;;;;;5059606;28;20210;-89
2021/11/16 01:07:46;;;;;;;76.07;38.40;;;9.50;99.90;;;;;;5061415;28;20186;-89
2021/11/16 01:10:16;;;;;;;78.20;39.37;;;9.50;99.90;;;;;;5078276;28;20252;-88
2021/11/16 01:12:43;;;;;;;83.03;40.93;;;9.50;99.90;;;;;;5089909;28;20295;-88
2021/11/16 01:15:13;;;;;;;80.73;40.67;;;9.50;99.90;;;;;;5078295;28;20175;-88
2021/11/16 01:17:38;;;;;;;81.83;40.93;;;9.50;99.90;;;;;;5054974;28;20202;-89
2021/11/16 01:20:07;;;;;;;82.27;39.97;;;9.50;99.90;;;;;;5063904;28;20181;-89
2021/11/16 01:22:33;;;;;;;84.47;41.23;;;9.50;99.90;;;;;;5058624;28;20195;-90
2021/11/16 01:24:59;;;;;;;81.60;41.77;;;9.50;99.90;;;;;;5076528;28;20175;-90
2021/11/16 01:27:26;;;;;;;81.60;40.47;;;9.50;99.90;;;;;;5076173;28;20198;-91
2021/11/16 01:29:54;;;;;;;79.23;40.07;;;9.60;99.90;;;;;;5059856;28;20207;-90
2021/11/16 01:35:00;;;;;;;83.37;40.80;;;9.60;99.90;;;;;;5077390;28;20621;-89
2021/11/16 01:37:26;;;;;;;78.40;40.70;;;9.60;99.90;;;;;;5058722;28;20168;-90
2021/11/16 01:39:52;;;;;;;77.70;39.80;;;9.70;99.90;;;;;;5076421;28;20227;-89
2021/11/16 01:42:22;;;;;;;74.70;39.63;;;9.80;99.90;;;;;;5060363;28;20212;-88
2021/11/16 01:44:50;;;;;;;76.47;38.77;;;9.90;99.90;;;;;;5061269;28;20181;-89
2021/11/16 01:47:16;;;;;;;78.77;39.03;;;9.70;99.90;;;;;;5077355;28;20183;-89
2021/11/16 01:49:43;;;;;;;76.90;37.97;;;9.70;99.90;;;;;;5093524;28;20260;-89
2021/11/16 01:52:10;;;;;;;75.60;38.73;;;9.60;99.90;;;;;;5076661;28;20182;-89
2021/11/16 01:54:37;;;;;;;80.87;38.70;;;9.60;99.90;;;;;;5058731;28;20198;-91
2021/11/16 01:57:03;;;;;;;81.50;38.73;;;9.60;99.90;;;;;;5061807;28;20180;-89
2021/11/16 01:59:29;;;;;;;82.80;39.47;;;9.70;99.90;;;;;;5058945;28;20183;-91
2021/11/16 02:01:56;;;;;;;79.33;37.70;;;9.80;99.90;;;;;;5075889;28;20182;-88
2021/11/16 02:04:32;;;;;;;74.17;36.77;;;9.80;99.90;;;;;;5077383;28;20180;-89
2021/11/16 02:06:59;;;;;;;78.27;37.47;;;9.80;99.90;;;;;;5075427;28;20214;-89
2021/11/16 02:09:25;;;;;;;71.43;35.87;;;9.90;99.90;;;;;;5061624;28;20201;-89
2021/11/16 02:11:51;;;;;;;71.27;35.07;;;9.80;99.90;;;;;;5076500;28;20181;-88
2021/11/16 02:14:17;;;;;;;71.73;34.17;;;9.70;99.90;;;;;;5062570;28;20178;-89
2021/11/16 02:16:45;;;;;;;65.03;33.63;;;9.40;99.90;;;;;;5062629;28;20182;-88
2021/11/16 02:19:13;;;;;;;63.70;32.67;;;9.10;99.90;;;;;;5062564;28;20637;-90
2021/11/16 02:21:39;;;;;;;68.77;33.23;;;8.90;99.90;;;;;;5059417;28;20635;-89
2021/11/16 02:24:07;;;;;;;68.40;33.97;;;9.10;99.90;;;;;;5074113;28;20205;-89
2021/11/16 02:26:34;;;;;;;65.23;33.80;;;9.30;99.90;;;;;;5074922;28;20633;-89
2021/11/16 02:29:02;;;;;;;64.00;32.80;;;9.40;99.90;;;;;;5059204;28;20235;-88
2021/11/16 02:31:29;;;;;;;67.53;33.00;;;9.30;99.90;;;;;;5062649;28;20257;-89
2021/11/16 02:33:55;;;;;;;65.17;32.33;;;9.30;99.90;;;;;;5077662;28;20208;-89
2021/11/16 02:36:27;;;;;;;61.93;31.53;;;9.40;99.90;;;;;;5077171;28;20649;-90
2021/11/16 02:38:53;;;;;;;61.53;31.20;;;9.30;99.90;;;;;;5056728;28;20258;-89
2021/11/16 02:41:19;;;;;;;65.13;30.90;;;9.10;99.90;;;;;;5059120;28;20174;-89
2021/11/16 02:43:45;;;;;;;60.80;32.03;;;9.10;99.90;;;;;;5078018;28;20273;-90
2021/11/16 02:46:11;;;;;;;58.57;30.03;;;9.20;99.90;;;;;;5080604;28;20291;-88
2021/11/16 02:48:38;;;;;;;60.23;30.53;;;9.10;99.90;;;;;;5079703;28;20198;-88
2021/11/16 02:51:08;;;;;;;58.97;30.03;;;9.00;99.90;;;;;;5080645;28;20185;-89
2021/11/16 02:53:43;;;;;;;60.33;30.83;;;8.90;99.90;;;;;;5061721;28;20189;-89
2021/11/16 02:56:09;;;;;;;58.17;30.27;;;9.00;99.90;;;;;;5051201;28;20248;-89
2021/11/16 02:58:35;;;;;;;61.47;29.67;;;9.00;99.90;;;;;;5079863;28;20206;-89
2021/11/16 03:01:06;;;;;;;59.77;29.57;;;9.20;99.90;;;;;;5057896;28;20641;-89
2021/11/16 03:03:33;;;;;;;62.50;31.03;;;9.00;99.90;;;;;;5062077;28;20194;-89
2021/11/16 03:05:59;;;;;;;58.37;29.23;;;9.00;99.90;;;;;;5061681;28;20565;-89
2021/11/16 03:08:26;;;;;;;59.17;29.40;;;9.10;99.90;;;;;;5061633;28;20728;-89
2021/11/16 03:10:55;;;;;;;60.97;28.97;;;9.10;99.90;;;;;;5064004;28;20175;-89
2021/11/16 03:13:23;;;;;;;56.60;29.73;;;9.10;99.90;;;;;;5061725;28;20702;-89
2021/11/16 03:15:49;;;;;;;59.03;28.87;;;9.20;99.90;;;;;;5079952;28;20202;-89
2021/11/16 03:18:15;;;;;;;59.60;29.03;;;9.10;99.90;;;;;;5061675;28;20203;-89
2021/11/16 03:20:41;;;;;;;57.43;28.67;;;9.10;99.90;;;;;;5077483;28;20216;-89
2021/11/16 03:23:26;;;;;;;56.33;28.90;;;9.10;99.90;;;;;;5078902;28;20696;-89
2021/11/16 03:26:01;;;;;;;58.57;29.43;;;9.10;99.90;;;;;;5078607;28;20214;-89
2021/11/16 03:28:31;;;;;;;63.17;30.30;;;9.20;99.90;;;;;;5084167;28;20676;-89
2021/11/16 03:31:09;;;;;;;62.63;30.67;;;9.30;99.90;;;;;;5058664;28;20700;-89
2021/11/16 03:33:36;;;;;;;57.73;29.23;;;9.40;99.90;;;;;;5068741;28;20175;-88
2021/11/16 03:36:03;;;;;;;59.60;29.77;;;9.30;99.90;;;;;;5079223;28;20630;-88
2021/11/16 03:38:30;;;;;;;55.67;29.33;;;9.00;99.90;;;;;;5079630;28;20681;-88
2021/11/16 03:40:56;;;;;;;57.67;29.27;;;9.00;99.90;;;;;;5094455;28;20706;-87
2021/11/16 03:43:23;;;;;;;62.07;30.63;;;9.00;99.90;;;;;;5060209;28;20198;-89
2021/11/16 03:45:50;;;;;;;57.63;28.83;;;9.00;99.90;;;;;;5081417;28;20190;-90
2021/11/16 03:48:17;;;;;;;59.17;29.83;;;9.00;99.90;;;;;;5065770;28;20268;-88
2021/11/16 03:50:44;;;;;;;55.60;28.40;;;8.80;99.90;;;;;;5082016;28;20232;-89
2021/11/16 03:53:10;;;;;;;57.47;29.93;;;8.80;99.90;;;;;;5081936;28;20183;-88
2021/11/16 03:55:40;;;;;;;58.77;29.87;;;8.80;99.90;;;;;;5069527;28;20663;-88
2021/11/16 03:58:06;;;;;;;63.93;30.70;;;8.90;99.90;;;;;;5095270;28;20199;-88
2021/11/16 04:00:40;;;;;;;59.73;30.43;;;9.00;99.90;;;;;;5066870;28;20270;-87
2021/11/16 04:03:07;;;;;;;60.87;30.80;;;9.10;99.90;;;;;;5059947;28;20548;-89
2021/11/16 04:05:33;;;;;;;62.33;30.10;;;9.20;99.90;;;;;;5079201;28;20233;-88
2021/11/16 04:07:59;;;;;;;61.40;30.23;;;9.20;99.90;;;;;;5078364;28;20548;-88
2021/11/16 04:10:25;;;;;;;60.80;29.80;;;9.20;99.90;;;;;;5063246;28;20187;-88
2021/11/16 04:12:52;;;;;;;57.27;29.23;;;9.20;99.90;;;;;;5061902;28;20233;-89
2021/11/16 04:15:22;;;;;;;58.33;29.63;;;9.20;99.90;;;;;;5080769;28;20183;-89
2021/11/16 04:17:49;;;;;;;59.93;29.63;;;9.00;99.90;;;;;;5060754;28;20187;-89
2021/11/16 04:20:21;;;;;;;57.07;29.33;;;8.90;99.90;;;;;;5063582;28;20703;-89
2021/11/16 04:22:47;;;;;;;62.27;31.10;;;8.70;99.90;;;;;;5062220;28;20526;-89
2021/11/16 04:25:13;;;;;;;62.37;30.30;;;8.70;99.90;;;;;;5062242;28;20183;-89
2021/11/16 04:27:40;;;;;;;61.97;30.30;;;8.80;99.90;;;;;;5063836;28;20182;-90
2021/11/16 04:30:08;;;;;;;61.27;29.43;;;8.90;99.90;;;;;;5061408;28;20210;-89
2021/11/16 04:32:34;;;;;;;57.57;28.33;;;8.80;99.90;;;;;;5077033;28;20677;-89
2021/11/16 04:34:59;;;;;;;59.53;30.33;;;8.60;99.90;;;;;;5057454;28;20188;-89
2021/11/16 04:37:26;;;;;;;58.33;29.57;;;8.40;99.90;;;;;;5073945;28;20193;-89
2021/11/16 04:39:51;;;;;;;59.93;29.07;;;8.20;99.90;;;;;;5080593;28;20299;-88
2021/11/16 04:42:17;;;;;;;59.97;28.40;;;8.40;99.90;;;;;;5062420;28;20654;-88
2021/11/16 04:44:45;;;;;;;58.67;29.50;;;8.60;99.90;;;;;;5079118;28;20266;-89
2021/11/16 04:47:13;;;;;;;60.27;30.57;;;8.70;99.90;;;;;;5077704;28;20194;-88
2021/11/16 04:49:43;;;;;;;64.73;31.10;;;8.60;99.90;;;;;;5091080;28;20203;-89
2021/11/16 04:52:19;;;;;;;65.90;31.33;;;8.70;99.90;;;;;;5078630;28;20270;-88
2021/11/16 05:02:43;;;;;;;64.97;31.10;;;9.10;99.90;;;;;;5079189;28;20211;-88
2021/11/16 05:05:12;;;;;;;61.50;30.20;;;9.10;99.90;;;;;;5075181;28;20208;-88
2021/11/16 05:07:55;;;;;;;65.50;30.27;;;9.10;99.90;;;;;;5064413;28;20196;-88
2021/11/16 05:10:23;;;;;;;66.83;31.77;;;9.20;99.90;;;;;;5059643;28;20191;-88
2021/11/16 05:12:48;;;;;;;66.93;32.47;;;9.30;99.90;;;;;;5076427;28;20369;-88
2021/11/16 05:15:17;;;;;;;67.17;31.53;;;9.30;99.90;;;;;;5060083;28;20278;-88
2021/11/16 05:17:43;;;;;;;64.20;30.83;;;9.30;99.90;;;;;;5061648;28;20237;-88
2021/11/16 05:20:10;;;;;;;68.93;32.20;;;9.40;99.90;;;;;;5094054;28;20260;-88
2021/11/16 05:22:36;;;;;;;69.10;32.60;;;9.40;99.90;;;;;;5060439;28;20321;-87
2021/11/16 05:25:03;;;;;;;61.27;30.67;;;9.10;99.90;;;;;;5064628;28;20191;-88
2021/11/16 05:27:29;;;;;;;61.13;30.30;;;9.00;99.90;;;;;;5094112;28;20183;-89
2021/11/16 05:29:55;;;;;;;69.53;32.37;;;9.00;99.90;;;;;;5075757;28;20196;-88
2021/11/16 05:32:20;;;;;;;65.07;31.67;;;9.10;99.90;;;;;;5076536;28;20176;-88
2021/11/16 05:34:47;;;;;;;70.23;32.80;;;9.20;99.90;;;;;;5061668;28;20263;-88
2021/11/16 05:37:13;;;;;;;70.20;33.50;;;9.40;99.90;;;;;;5065119;28;20187;-89
2021/11/16 05:39:39;;;;;;;71.30;32.57;;;9.40;99.90;;;;;;5079027;28;20317;-90
2021/11/16 05:42:05;;;;;;;70.67;33.33;;;9.40;99.90;;;;;;5075240;28;20274;-90
2021/11/16 05:44:32;;;;;;;70.87;33.00;;;9.40;99.90;;;;;;5076391;28;20575;-87
2021/11/16 05:47:02;;;;;;;68.33;33.10;;;9.40;99.90;;;;;;5075511;28;20190;-87
2021/11/16 05:49:32;;;;;;;69.90;32.20;;;9.50;99.90;;;;;;5076339;28;20207;-88
2021/11/16 05:52:03;;;;;;;70.57;31.47;;;9.50;99.90;;;;;;5095814;28;20217;-88
2021/11/16 05:54:33;;;;;;;73.60;33.53;;;9.60;99.90;;;;;;5062232;28;20274;-88
2021/11/16 05:57:01;;;;;;;73.53;33.20;;;9.60;99.90;;;;;;5060768;28;20642;-88
2021/11/16 05:59:32;;;;;;;70.80;33.17;;;9.60;99.90;;;;;;5057538;28;20183;-88
2021/11/16 06:02:00;;;;;;;72.30;33.60;;;9.60;99.90;;;;;;5069633;28;20234;-88
2021/11/16 06:04:26;;;;;;;79.57;34.97;;;9.60;99.90;;;;;;5059305;28;20677;-88
2021/11/16 06:06:52;;;;;;;76.90;33.70;;;9.60;99.90;;;;;;5064417;28;20183;-88
2021/11/16 06:09:17;;;;;;;71.67;33.33;;;9.60;99.90;;;;;;5074301;28;20677;-88
2021/11/16 06:11:43;;;;;;;72.37;34.00;;;9.70;99.90;;;;;;5063253;28;20175;-88
2021/11/16 06:14:09;;;;;;;73.80;33.20;;;9.70;99.90;;;;;;5059450;28;20183;-88
2021/11/16 06:16:35;;;;;;;80.10;34.77;;;9.70;99.90;;;;;;5060936;28;20180;-89
2021/11/16 06:19:05;;;;;;;73.07;33.57;;;9.70;99.90;;;;;;5058422;28;20202;-88
2021/11/16 06:21:31;;;;;;;76.00;33.93;;;9.70;99.90;;;;;;5078581;28;20704;-88
2021/11/16 06:23:58;;;;;;;74.10;33.97;;;9.70;99.90;;;;;;5078780;28;20187;-88
2021/11/16 06:26:25;;;;;;;75.37;34.77;;;9.70;99.90;;;;;;5060197;28;20210;-87
2021/11/16 06:28:51;;;;;;;76.33;33.30;;;9.70;99.90;;;;;;5078101;28;20599;-88
2021/11/16 06:31:21;;;;;;;84.10;41.53;;;9.70;99.90;;;;;;5093383;28;20436;-89
2021/11/16 06:33:48;;;;;;;77.60;36.90;;;9.50;99.90;;;;;;5074226;28;20533;-89
2021/11/16 06:36:14;;;;;;;73.60;34.27;;;9.50;99.90;;;;;;5069620;28;20208;-89
2021/11/16 06:38:40;;;;;;;74.53;34.13;;;9.50;99.90;;;;;;5059868;28;20221;-88
2021/11/16 06:41:07;;;;;;;74.03;34.30;;;9.50;99.90;;;;;;5056204;28;20219;-90
2021/11/16 06:43:34;;;;;;;73.67;33.70;;;9.60;99.90;;;;;;5058521;28;20233;-88
2021/11/16 06:46:02;;;;;;;71.87;34.00;;;9.60;99.90;;;;;;5059903;28;20187;-88
2021/11/16 06:48:29;;;;;;;72.23;33.00;;;9.50;99.90;;;;;;5075252;28;20622;-89
2021/11/16 06:50:56;;;;;;;70.13;32.60;;;9.20;99.90;;;;;;5056807;28;20200;-89
2021/11/16 06:53:27;;;;;;;76.13;33.27;;;9.20;99.90;;;;;;5056238;28;20226;-88
2021/11/16 06:55:54;;;;;;;73.73;33.00;;;9.30;99.90;;;;;;5073946;28;20182;-88
2021/11/16 06:58:20;;;;;;;67.20;31.33;;;9.40;99.90;;;;;;5074546;28;20646;-89
2021/11/16 07:00:47;;;;;;;71.27;32.40;;;9.30;99.90;;;;;;5058277;28;20583;-88
2021/11/16 07:03:21;;;;;;;71.90;33.60;;;9.20;99.90;;;;;;5076914;28;20220;-90
2021/11/16 07:05:56;;;;;;;77.17;33.93;;;9.30;99.90;;;;;;5093386;28;20274;-90
2021/11/16 07:08:31;;;;;;;69.27;32.67;;;9.30;99.90;;;;;;5076585;28;20663;-90
2021/11/16 07:11:18;;;;;;;74.97;33.63;;;9.20;99.90;;;;;;5076501;28;20653;-90
2021/11/16 07:14:07;;;;;;;70.73;33.40;;;9.20;99.90;;;;;;5054635;28;20187;-91
2021/11/16 07:16:37;;;;;;;68.70;33.07;;;9.40;99.90;;;;;;5057422;28;20694;-92
2021/11/16 07:19:08;;;;;;;73.77;33.90;;;9.50;99.90;;;;;;5057668;28;20245;-91
2021/11/16 07:22:09;;;;;;;75.23;33.97;;;9.30;99.90;;;;;;5074396;28;20183;-91
2021/11/16 07:24:42;;;;;;;76.10;33.93;;;9.00;99.90;;;;;;5062212;28;20190;-90
2021/11/16 07:27:08;;;;;;;76.77;34.23;;;9.00;99.90;;;;;;5072918;28;20179;-91
2021/11/16 07:29:57;;;;;;;78.30;34.13;;;8.90;99.90;;;;;;5057227;28;20213;-90
2021/11/16 07:32:27;;;;;;;77.83;34.33;;;9.00;99.90;;;;;;5060254;28;20272;-89
2021/11/16 07:35:04;;;;;;;71.17;33.07;;;9.10;99.90;;;;;;5076686;28;20276;-90
2021/11/16 07:37:40;;;;;;;74.17;33.90;;;9.10;99.90;;;;;;5076328;28;20183;-90
2021/11/16 07:40:18;;;;;;;78.37;33.97;;;9.10;99.90;;;;;;5060549;28;20227;-90
2021/11/16 07:42:55;;;;;;;76.57;34.33;;;9.10;99.90;;;;;;5075738;28;20197;-90
2021/11/16 07:45:27;;;;;;;75.57;35.00;;;9.20;99.90;;;;;;5069577;28;20190;-90
2021/11/16 07:48:06;;;;;;;80.63;35.33;;;9.40;99.90;;;;;;5077182;28;20202;-89
2021/11/16 07:50:31;;;;;;;78.17;35.60;;;9.50;99.90;;;;;;5076360;28;20552;-90
2021/11/16 07:53:27;;;;;;;82.03;35.73;;;9.60;99.90;;;;;;5060925;28;20184;-88
2021/11/16 07:55:52;;;;;;;81.40;34.80;;;9.60;99.90;;;;;;5063999;28;20195;-88
2021/11/16 07:58:19;;;;;;;80.67;36.53;;;9.60;99.90;;;;;;5075887;28;20187;-88
2021/11/16 08:00:47;;;;;;;90.83;37.80;;;9.60;99.90;;;;;;5059720;28;20650;-88
2021/11/16 08:03:18;;;;;;;88.90;38.03;;;9.60;99.90;;;;;;5060425;28;20274;-88
2021/11/16 08:05:57;;;;;;;84.83;36.03;;;9.60;99.90;;;;;;5075556;28;20252;-88
2021/11/16 08:11:07;;;;;;;108.43;37.33;;;9.70;99.90;;;;;;5076715;28;20209;-88
2021/11/16 08:13:35;;;;;;;88.57;37.40;;;9.70;99.90;;;;;;5060837;28;20187;-88
2021/11/16 08:16:11;;;;;;;84.53;36.30;;;9.70;99.90;;;;;;5060481;28;20217;-88
2021/11/16 08:18:59;;;;;;;83.43;36.27;;;9.70;99.90;;;;;;5060118;28;20282;-91
2021/11/16 08:21:26;;;;;;;87.30;38.27;;;9.60;99.90;;;;;;5060152;28;20649;-90
2021/11/16 08:23:59;;;;;;;85.13;35.57;;;9.60;99.90;;;;;;5060420;28;20198;-89
2021/11/16 08:26:30;;;;;;;81.63;37.80;;;9.50;99.90;;;;;;5060503;28;20218;-90
2021/11/16 08:28:56;;;;;;;82.83;36.40;;;9.50;99.90;;;;;;5060485;28;20210;-90
2021/11/16 08:31:23;;;;;;;81.13;35.40;;;9.50;99.90;;;;;;5076259;28;20187;-90
2021/11/16 08:33:51;;;;;;;79.63;36.40;;;9.50;99.90;;;;;;5060603;28;20191;-90
2021/11/16 08:36:22;;;;;;;82.80;36.70;;;9.40;99.90;;;;;;5069165;28;20228;-90
2021/11/16 08:38:50;;;;;;;94.07;40.90;;;9.50;99.90;;;;;;5050969;28;20215;-89
2021/11/16 08:41:32;;;;;;;84.47;37.20;;;9.40;99.90;;;;;;5075273;28;20188;-89
2021/11/16 08:44:21;;;;;;;87.93;38.60;;;9.40;99.90;;;;;;5093383;28;20190;-90
2021/11/16 08:46:49;;;;;;;91.10;39.17;;;9.40;99.90;;;;;;5059197;28;20630;-89
2021/11/16 08:49:28;;;;;;;96.83;42.33;;;9.40;99.90;;;;;;5076378;28;20222;-90
2021/11/16 08:51:57;;;;;;;87.27;37.20;;;9.50;99.90;;;;;;5093485;28;20182;-90
2021/11/16 08:54:29;;;;;;;78.00;35.40;;;9.50;99.90;;;;;;5076663;28;20710;-89
2021/11/16 08:56:56;;;;;;;80.37;35.13;;;9.40;99.90;;;;;;5060986;28;20637;-89
2021/11/16 08:59:22;;;;;;;81.83;35.57;;;9.40;99.90;;;;;;5058401;28;20188;-89
2021/11/16 09:02:01;;;;;;;79.73;35.43;;;9.40;99.90;;;;;;5058937;28;20191;-90
2021/11/16 09:04:30;;;;;;;90.97;37.03;;;9.30;99.90;;;;;;5075998;28;20175;-90
2021/11/16 09:06:56;;;;;;;84.03;36.70;;;9.00;99.90;;;;;;5061364;28;20266;-90
2021/11/16 09:09:23;;;;;;;84.93;36.43;;;9.00;99.90;;;;;;5060584;28;20352;-90
2021/11/16 09:11:56;;;;;;;83.27;36.40;;;9.20;99.90;;;;;;5094264;28;20174;-89
2021/11/16 09:14:23;;;;;;;94.50;38.07;;;9.40;99.90;;;;;;5059085;28;20190;-90
2021/11/16 09:16:49;;;;;;;85.57;36.90;;;9.50;99.90;;;;;;5077187;28;20557;-89
2021/11/16 09:19:29;;;;;;;86.20;35.97;;;9.60;99.90;;;;;;5061491;28;20684;-90
2021/11/16 09:21:55;;;;;;;87.00;36.13;;;9.50;99.90;;;;;;5070309;28;20554;-89
2021/11/16 09:24:30;;;;;;;81.60;35.83;;;9.10;99.90;;;;;;5075039;28;20184;-91
2021/11/16 09:29:25;;;;;;;82.33;35.47;;;8.70;99.90;;;;;;5078402;28;20263;-90
2021/11/16 09:32:06;;;;;;;78.60;33.43;;;8.50;99.90;;;;;;5074380;28;20690;-90
2021/11/16 09:34:38;;;;;;;83.70;35.07;;;8.40;99.90;;;;;;5061172;28;20206;-89
2021/11/16 09:37:16;;;;;;;84.30;35.47;;;8.50;99.90;;;;;;5059883;28;20189;-90
2021/11/16 09:39:45;;;;;;;81.83;34.50;;;8.60;99.90;;;;;;5057511;28;20314;-90
2021/11/16 09:42:15;;;;;;;81.87;35.50;;;8.70;99.90;;;;;;5035642;28;20253;-89
2021/11/16 09:44:48;;;;;;;80.60;33.73;;;8.70;99.90;;;;;;5050727;28;20651;-89
2021/11/16 09:47:28;;;;;;;82.47;36.00;;;8.60;99.90;;;;;;5028537;28;20181;-89
2021/11/16 09:50:03;;;;;;;88.40;35.77;;;8.70;99.90;;;;;;5050462;28;20208;-89
2021/11/16 09:52:36;;;;;;;83.03;35.93;;;8.90;99.90;;;;;;5044524;28;20214;-89
2021/11/16 09:55:11;;;;;;;84.13;33.53;;;8.90;99.90;;;;;;5034229;28;20722;-90
2021/11/16 09:57:41;;;;;;;81.63;34.43;;;8.90;99.90;;;;;;5029120;28;20206;-89
2021/11/16 10:00:21;;;;;;;82.47;34.57;;;8.90;99.90;;;;;;5046418;28;20206;-89
2021/11/16 10:02:50;;;;;;;69.07;31.93;;;8.80;99.90;;;;;;5047798;28;20245;-88
2021/11/16 10:05:20;;;;;;;71.10;31.17;;;8.70;99.90;;;;;;5028852;28;20183;-89
2021/11/16 10:07:47;;;;;;;74.77;32.97;;;8.70;99.90;;;;;;5045587;28;20317;-89
2021/11/16 10:10:14;;;;;;;87.70;37.77;;;8.80;99.90;;;;;;5027264;28;20219;-89
2021/11/16 10:12:45;;;;;;;85.97;37.00;;;8.90;99.90;;;;;;5035295;28;20199;-89
2021/11/16 10:15:15;;;;;;;83.27;34.77;;;9.10;99.90;;;;;;5020080;28;20191;-89
2021/11/16 10:17:46;;;;;;;81.87;34.13;;;9.30;99.90;;;;;;5050910;28;20199;-89
2021/11/16 10:20:15;;;;;;;83.67;34.43;;;9.40;99.90;;;;;;5050772;28;20195;-90
2021/11/16 10:22:43;;;;;;;71.63;32.20;;;9.40;99.90;;;;;;5051259;28;20203;-89
2021/11/16 10:25:18;;;;;;;67.73;31.43;;;9.50;99.90;;;;;;5034995;28;20249;-89
2021/11/16 10:27:46;;;;;;;73.77;32.07;;;9.50;99.90;;;;;;5028055;28;20194;-90
2021/11/16 10:30:18;;;;;;;74.73;31.80;;;9.40;99.90;;;;;;5056403;28;20808;-90
2021/11/16 10:33:05;;;;;;;73.83;31.80;;;9.50;99.90;;;;;;5034348;28;20180;-89
2021/11/16 10:35:31;;;;;;;79.60;32.97;;;9.50;99.90;;;;;;5049080;28;20670;-90
2021/11/16 10:37:58;;;;;;;78.90;32.73;;;9.50;99.90;;;;;;5033969;28;20271;-89
2021/11/16 10:40:28;;;;;;;74.37;32.07;;;9.60;99.90;;;;;;5060401;28;20224;-89
2021/11/16 10:42:59;;;;;;;73.90;31.27;;;9.70;99.90;;;;;;5064215;28;20216;-91
2021/11/16 10:45:30;;;;;;;71.33;29.97;;;9.60;99.90;;;;;;5057644;28;20203;-89
2021/11/16 10:48:03;;;;;;;70.00;30.23;;;9.60;99.90;;;;;;5074134;28;20188;-90
2021/11/16 10:50:31;;;;;;;68.53;30.67;;;9.60;99.90;;;;;;5074738;28;20188;-89
2021/11/16 10:53:07;;;;;;;65.57;30.53;;;9.80;99.90;;;;;;5058211;28;20210;-89
2021/11/16 10:55:52;;;;;;;66.13;29.90;;;9.70;99.90;;;;;;5057389;28;20206;-89
2021/11/16 10:58:29;;;;;;;69.87;31.37;;;9.70;99.90;;;;;;5057389;28;20271;-89
2021/11/16 11:01:00;;;;;;;72.90;32.47;;;9.40;99.90;;;;;;5089804;28;20243;-89
2021/11/16 11:03:43;;;;;;;67.43;29.97;;;9.30;99.90;;;;;;5055251;28;20195;-90
2021/11/16 11:06:10;;;;;;;68.13;30.10;;;9.30;99.90;;;;;;5076408;28;20191;-89
2021/11/16 11:08:51;;;;;;;68.90;30.80;;;9.20;99.90;;;;;;5064133;28;20202;-90
2021/11/16 11:11:22;;;;;;;70.13;30.37;;;9.40;99.90;;;;;;5057923;28;20209;-90
2021/11/16 11:13:54;;;;;;;72.70;31.17;;;9.50;99.90;;;;;;5063135;28;20230;-89
2021/11/16 11:16:20;;;;;;;70.87;30.33;;;9.40;99.90;;;;;;5075215;28;20211;-90
2021/11/16 11:18:48;;;;;;;73.03;31.27;;;9.50;99.90;;;;;;5079575;28;20263;-89
2021/11/16 11:21:37;;;;;;;67.17;29.27;;;9.70;99.90;;;;;;5077440;28;20183;-90
2021/11/16 11:24:21;;;;;;;67.47;28.40;;;9.80;99.90;;;;;;5077058;28;20191;-89
2021/11/16 11:26:56;;;;;;;66.47;28.17;;;9.90;99.90;;;;;;5073370;28;20191;-89
2021/11/16 11:29:45;;;;;;;65.77;28.30;;;9.80;99.90;;;;;;5069953;28;20230;-89
2021/11/16 11:32:19;;;;;;;57.50;26.20;;;9.50;99.90;;;;;;5060903;28;20198;-90
2021/11/16 11:34:47;;;;;;;59.93;25.97;;;9.50;99.90;;;;;;5079043;28;20282;-89
2021/11/16 11:37:20;;;;;;;56.20;27.00;;;9.60;99.90;;;;;;5060151;28;20218;-91
2021/11/16 11:39:53;;;;;;;57.37;26.83;;;9.50;99.90;;;;;;5060802;28;20227;-90
2021/11/16 11:42:19;;;;;;;59.87;26.73;;;9.30;99.90;;;;;;5059852;28;20191;-89
2021/11/16 11:44:58;;;;;;;61.87;27.80;;;8.80;99.90;;;;;;5094619;28;20278;-90
2021/11/16 11:47:31;;;;;;;61.37;26.70;;;8.80;99.90;;;;;;5060890;28;20191;-89
2021/11/16 11:49:58;;;;;;;62.60;28.00;;;9.00;99.90;;;;;;5076802;28;20206;-88
2021/11/16 11:52:24;;;;;;;64.37;29.33;;;9.00;99.90;;;;;;5077524;28;20191;-89
2021/11/16 11:54:50;;;;;;;69.97;29.53;;;9.10;99.90;;;;;;5077250;28;20206;-89
2021/11/16 11:57:17;;;;;;;73.70;30.90;;;9.20;99.90;;;;;;5077152;28;20192;-89
2021/11/16 11:59:42;;;;;;;74.20;31.07;;;9.30;99.90;;;;;;5062710;28;20174;-90
2021/11/16 12:02:08;;;;;;;71.27;30.77;;;9.50;99.90;;;;;;5078100;28;20194;-90
2021/11/16 12:04:36;;;;;;;67.17;29.43;;;9.50;99.90;;;;;;5077379;28;20642;-90
2021/11/16 12:07:03;;;;;;;67.70;28.77;;;9.50;99.90;;;;;;5075072;28;20725;-90
2021/11/16 12:09:30;;;;;;;67.80;28.57;;;9.40;99.90;;;;;;5076669;28;20677;-89
2021/11/16 12:11:57;;;;;;;65.13;29.03;;;9.10;99.90;;;;;;5079100;28;20180;-89
2021/11/16 12:14:52;;;;;;;71.43;30.23;;;9.00;99.90;;;;;;5077188;28;20229;-89
2021/11/16 12:17:27;;;;;;;66.27;28.87;;;8.90;99.90;;;;;;5071701;28;20212;-90
2021/11/16 12:19:53;;;;;;;61.60;28.20;;;8.90;99.90;;;;;;5059394;28;20183;-90
2021/11/16 12:22:29;;;;;;;70.07;30.30;;;9.00;99.90;;;;;;5078749;28;20183;-89
2021/11/16 12:25:16;;;;;;;66.17;29.20;;;9.10;99.90;;;;;;5077052;28;20210;-89
2021/11/16 12:27:42;;;;;;;73.30;29.83;;;9.30;99.90;;;;;;5076383;28;20197;-89
2021/11/16 12:30:09;;;;;;;69.33;29.97;;;9.60;99.90;;;;;;5061050;28;20206;-89
2021/11/16 12:32:37;;;;;;;71.87;28.97;;;9.70;99.90;;;;;;5077252;28;20260;-89
2021/11/16 12:35:09;;;;;;;68.17;29.37;;;9.70;99.90;;;;;;5062137;28;20284;-89
2021/11/16 12:37:39;;;;;;;65.07;27.77;;;9.70;99.90;;;;;;5078049;28;20632;-89
2021/11/16 12:40:28;;;;;;;65.50;27.60;;;9.70;99.90;;;;;;5076761;28;20250;-89
2021/11/16 12:43:15;;;;;;;65.47;28.33;;;9.70;99.90;;;;;;5074812;28;20194;-89
2021/11/16 12:45:46;;;;;;;65.80;28.73;;;9.90;99.90;;;;;;5092239;28;20182;-89
2021/11/16 12:48:14;;;;;;;62.63;27.53;;;10.00;99.90;;;;;;5075850;28;20280;-89
2021/11/16 12:51:12;;;;;;;65.17;25.80;;;9.80;99.90;;;;;;5094091;28;20212;-90
2021/11/16 12:53:59;;;;;;;62.23;26.13;;;9.80;99.90;;;;;;5062621;28;20256;-89
2021/11/16 12:56:41;;;;;;;65.33;27.30;;;9.90;99.90;;;;;;5065245;28;20180;-90
2021/11/16 12:59:11;;;;;;;64.23;27.57;;;9.80;99.90;;;;;;5077888;28;20195;-89
2021/11/16 13:01:47;;;;;;;59.80;26.67;;;9.90;99.90;;;;;;5074486;28;20184;-89
2021/11/16 13:04:15;;;;;;;60.23;25.13;;;9.90;99.90;;;;;;5074983;28;20661;-89
2021/11/16 13:06:44;;;;;;;60.53;25.13;;;9.90;99.90;;;;;;5074877;28;20542;-90